sensor_id;sensor_type;location;lat;lon;timestamp;pressure;altitude;pressure_sealevel;temperature;humidity
35291;BME280;21411;50.024;19.220;2024-02-23T00:01:05;97001.64;;;9.34;100.00
35291;BME280;21411;50.024;19.220;2024-02-23T00:03:50;97001.81;;;9.34;100.00
35291;BME280;21411;50.024;19.220;2024-02-23T00:06:17;97004.64;;;9.34;100.00
35291;BME280;21411;50.024;19.220;2024-02-23T00:08:44;97003.10;;;9.36;100.00
35291;BME280;21411;50.024;19.220;2024-02-23T00:11:11;97002.92;;;9.37;100.00
35291;BME280;21411;50.024;19.220;2024-02-23T00:13:38;97000.68;;;9.39;100.00
35291;BME280;21411;50.024;19.220;2024-02-23T00:16:04;96998.31;;;9.39;100.00
35291;BME280;21411;50.024;19.220;2024-02-23T00:18:31;96994.07;;;9.39;100.00
35291;BME280;21411;50.024;19.220;2024-02-23T00:20:57;96989.62;;;9.39;100.00
35291;BME280;21411;50.024;19.220;2024-02-23T00:23:24;96992.28;;;9.39;100.00
35291;BME280;21411;50.024;19.220;2024-02-23T00:25:51;96990.80;;;9.38;100.00
35291;BME280;21411;50.024;19.220;2024-02-23T00:28:17;96992.17;;;9.37;100.00
35291;BME280;21411;50.024;19.220;2024-02-23T00:30:44;96986.58;;;9.36;100.00
35291;BME280;21411;50.024;19.220;2024-02-23T00:33:11;96982.67;;;9.34;100.00
35291;BME280;21411;50.024;19.220;2024-02-23T00:35:37;96982.29;;;9.33;100.00
35291;BME280;21411;50.024;19.220;2024-02-23T00:38:04;96982.32;;;9.32;100.00
35291;BME280;21411;50.024;19.220;2024-02-23T00:40:31;96978.56;;;9.33;100.00
35291;BME280;21411;50.024;19.220;2024-02-23T00:42:57;96979.48;;;9.32;100.00
35291;BME280;21411;50.024;19.220;2024-02-23T00:45:26;96981.54;;;9.31;100.00
35291;BME280;21411;50.024;19.220;2024-02-23T00:47:53;96975.67;;;9.30;100.00
35291;BME280;21411;50.024;19.220;2024-02-23T00:50:20;96969.65;;;9.28;100.00
35291;BME280;21411;50.024;19.220;2024-02-23T00:52:47;96971.50;;;9.25;100.00
35291;BME280;21411;50.024;19.220;2024-02-23T00:55:13;96972.66;;;9.22;100.00
35291;BME280;21411;50.024;19.220;2024-02-23T00:57:40;96974.69;;;9.19;100.00
35291;BME280;21411;50.024;19.220;2024-02-23T01:00:07;96975.20;;;9.18;100.00
35291;BME280;21411;50.024;19.220;2024-02-23T01:02:35;96978.41;;;9.15;100.00
35291;BME280;21411;50.024;19.220;2024-02-23T01:05:02;96976.85;;;9.13;100.00
35291;BME280;21411;50.024;19.220;2024-02-23T01:07:29;96975.84;;;9.12;100.00
35291;BME280;21411;50.024;19.220;2024-02-23T01:09:56;96976.70;;;9.14;100.00
35291;BME280;21411;50.024;19.220;2024-02-23T01:12:22;96981.80;;;9.17;100.00
35291;BME280;21411;50.024;19.220;2024-02-23T01:14:49;96983.98;;;9.20;100.00
35291;BME280;21411;50.024;19.220;2024-02-23T01:17:16;96977.64;;;9.21;100.00
35291;BME280;21411;50.024;19.220;2024-02-23T01:19:43;96973.94;;;9.23;100.00
35291;BME280;21411;50.024;19.220;2024-02-23T01:22:10;96978.61;;;9.25;100.00
35291;BME280;21411;50.024;19.220;2024-02-23T01:24:37;96980.38;;;9.27;100.00
35291;BME280;21411;50.024;19.220;2024-02-23T01:27:04;96978.07;;;9.29;100.00
35291;BME280;21411;50.024;19.220;2024-02-23T01:29:30;96973.89;;;9.30;100.00
35291;BME280;21411;50.024;19.220;2024-02-23T01:31:57;96976.55;;;9.31;100.00
35291;BME280;21411;50.024;19.220;2024-02-23T01:34:24;96984.75;;;9.33;100.00
35291;BME280;21411;50.024;19.220;2024-02-23T01:36:50;96985.80;;;9.35;100.00
35291;BME280;21411;50.024;19.220;2024-02-23T01:39:17;96988.38;;;9.37;100.00
35291;BME280;21411;50.024;19.220;2024-02-23T01:41:44;96992.14;;;9.41;100.00
35291;BME280;21411;50.024;19.220;2024-02-23T01:44:11;96993.64;;;9.44;100.00
35291;BME280;21411;50.024;19.220;2024-02-23T01:46:37;96988.31;;;9.46;100.00
35291;BME280;21411;50.024;19.220;2024-02-23T01:49:06;96987.30;;;9.47;100.00
35291;BME280;21411;50.024;19.220;2024-02-23T01:51:34;96986.43;;;9.47;100.00
35291;BME280;21411;50.024;19.220;2024-02-23T01:54:02;96981.92;;;9.48;100.00
35291;BME280;21411;50.024;19.220;2024-02-23T01:56:30;96983.38;;;9.48;100.00
35291;BME280;21411;50.024;19.220;2024-02-23T01:58:58;96982.02;;;9.47;100.00
35291;BME280;21411;50.024;19.220;2024-02-23T02:01:25;96979.11;;;9.46;100.00
35291;BME280;21411;50.024;19.220;2024-02-23T02:03:52;96974.71;;;9.43;100.00
35291;BME280;21411;50.024;19.220;2024-02-23T02:06:19;96970.87;;;9.41;100.00
35291;BME280;21411;50.024;19.220;2024-02-23T02:08:45;96965.92;;;9.39;100.00
35291;BME280;21411;50.024;19.220;2024-02-23T02:11:12;96971.98;;;9.37;100.00
35291;BME280;21411;50.024;19.220;2024-02-23T02:13:39;96976.30;;;9.34;100.00
35291;BME280;21411;50.024;19.220;2024-02-23T02:16:06;96976.05;;;9.33;100.00
35291;BME280;21411;50.024;19.220;2024-02-23T02:18:32;96976.30;;;9.32;100.00
35291;BME280;21411;50.024;19.220;2024-02-23T02:20:59;96974.31;;;9.31;100.00
35291;BME280;21411;50.024;19.220;2024-02-23T02:23:25;96970.02;;;9.29;100.00
35291;BME280;21411;50.024;19.220;2024-02-23T02:25:56;96969.48;;;9.27;100.00
35291;BME280;21411;50.024;19.220;2024-02-23T02:28:24;96974.94;;;9.26;100.00
35291;BME280;21411;50.024;19.220;2024-02-23T02:30:51;96973.50;;;9.24;100.00
35291;BME280;21411;50.024;19.220;2024-02-23T02:33:19;96972.27;;;9.22;100.00
35291;BME280;21411;50.024;19.220;2024-02-23T02:35:46;96974.42;;;9.20;100.00
35291;BME280;21411;50.024;19.220;2024-02-23T02:38:13;96974.61;;;9.18;100.00
35291;BME280;21411;50.024;19.220;2024-02-23T02:40:39;96977.16;;;9.15;100.00
35291;BME280;21411;50.024;19.220;2024-02-23T02:43:06;96972.29;;;9.13;100.00
35291;BME280;21411;50.024;19.220;2024-02-23T02:45:33;96971.31;;;9.10;100.00
35291;BME280;21411;50.024;19.220;2024-02-23T02:48:00;96971.42;;;9.08;100.00
35291;BME280;21411;50.024;19.220;2024-02-23T02:50:27;96969.47;;;9.07;100.00
35291;BME280;21411;50.024;19.220;2024-02-23T02:52:53;96972.83;;;9.05;100.00
35291;BME280;21411;50.024;19.220;2024-02-23T02:55:20;96974.61;;;9.03;100.00
35291;BME280;21411;50.024;19.220;2024-02-23T02:57:47;96973.71;;;9.01;100.00
35291;BME280;21411;50.024;19.220;2024-02-23T03:00:35;96972.52;;;8.98;100.00
35291;BME280;21411;50.024;19.220;2024-02-23T03:03:02;96970.40;;;8.97;100.00
35291;BME280;21411;50.024;19.220;2024-02-23T03:05:29;96972.27;;;8.96;100.00
35291;BME280;21411;50.024;19.220;2024-02-23T03:07:56;96971.54;;;8.96;100.00
35291;BME280;21411;50.024;19.220;2024-02-23T03:10:23;96979.98;;;8.96;100.00
35291;BME280;21411;50.024;19.220;2024-02-23T03:12:49;96981.16;;;8.97;100.00
35291;BME280;21411;50.024;19.220;2024-02-23T03:15:16;96986.16;;;8.97;100.00
35291;BME280;21411;50.024;19.220;2024-02-23T03:17:43;96986.61;;;8.96;100.00
35291;BME280;21411;50.024;19.220;2024-02-23T03:20:11;96988.12;;;8.94;100.00
35291;BME280;21411;50.024;19.220;2024-02-23T03:22:38;96990.50;;;8.94;100.00
35291;BME280;21411;50.024;19.220;2024-02-23T03:25:05;96992.29;;;8.92;100.00
35291;BME280;21411;50.024;19.220;2024-02-23T03:27:36;96994.02;;;8.88;100.00
35291;BME280;21411;50.024;19.220;2024-02-23T03:30:06;97001.81;;;8.85;100.00
35291;BME280;21411;50.024;19.220;2024-02-23T03:32:36;97004.86;;;8.82;100.00
35291;BME280;21411;50.024;19.220;2024-02-23T03:35:04;97006.67;;;8.80;100.00
35291;BME280;21411;50.024;19.220;2024-02-23T03:37:31;97011.88;;;8.79;100.00
35291;BME280;21411;50.024;19.220;2024-02-23T03:39:58;97016.94;;;8.77;100.00
35291;BME280;21411;50.024;19.220;2024-02-23T03:42:26;97023.67;;;8.74;100.00
35291;BME280;21411;50.024;19.220;2024-02-23T03:44:53;97024.15;;;8.69;100.00
35291;BME280;21411;50.024;19.220;2024-02-23T03:47:19;97024.60;;;8.64;100.00
35291;BME280;21411;50.024;19.220;2024-02-23T03:49:46;97031.73;;;8.62;100.00
35291;BME280;21411;50.024;19.220;2024-02-23T03:52:13;97033.05;;;8.58;100.00
35291;BME280;21411;50.024;19.220;2024-02-23T03:54:39;97039.18;;;8.55;100.00
35291;BME280;21411;50.024;19.220;2024-02-23T03:57:06;97039.95;;;8.52;100.00
35291;BME280;21411;50.024;19.220;2024-02-23T03:59:32;97040.64;;;8.49;100.00
35291;BME280;21411;50.024;19.220;2024-02-23T04:01:59;97039.77;;;8.45;100.00
35291;BME280;21411;50.024;19.220;2024-02-23T04:04:26;97038.98;;;8.42;100.00
35291;BME280;21411;50.024;19.220;2024-02-23T04:06:52;97041.73;;;8.41;100.00
35291;BME280;21411;50.024;19.220;2024-02-23T04:09:19;97042.34;;;8.40;100.00
35291;BME280;21411;50.024;19.220;2024-02-23T04:11:47;97046.52;;;8.38;100.00
35291;BME280;21411;50.024;19.220;2024-02-23T04:14:15;97049.05;;;8.35;100.00
35291;BME280;21411;50.024;19.220;2024-02-23T04:16:42;97049.31;;;8.32;100.00
35291;BME280;21411;50.024;19.220;2024-02-23T04:19:08;97052.66;;;8.31;100.00
35291;BME280;21411;50.024;19.220;2024-02-23T04:21:35;97052.59;;;8.29;100.00
35291;BME280;21411;50.024;19.220;2024-02-23T04:24:01;97056.92;;;8.28;100.00
35291;BME280;21411;50.024;19.220;2024-02-23T04:26:28;97049.02;;;8.28;100.00
35291;BME280;21411;50.024;19.220;2024-02-23T04:28:54;97047.29;;;8.27;100.00
35291;BME280;21411;50.024;19.220;2024-02-23T04:31:21;97050.19;;;8.26;100.00
35291;BME280;21411;50.024;19.220;2024-02-23T04:33:48;97050.48;;;8.25;100.00
35291;BME280;21411;50.024;19.220;2024-02-23T04:36:19;97048.08;;;8.23;100.00
35291;BME280;21411;50.024;19.220;2024-02-23T04:38:45;97050.78;;;8.20;100.00
35291;BME280;21411;50.024;19.220;2024-02-23T04:41:12;97053.04;;;8.18;100.00
35291;BME280;21411;50.024;19.220;2024-02-23T04:43:39;97051.54;;;8.18;100.00
35291;BME280;21411;50.024;19.220;2024-02-23T04:46:06;97059.55;;;8.15;100.00
35291;BME280;21411;50.024;19.220;2024-02-23T04:48:32;97063.33;;;8.12;100.00
35291;BME280;21411;50.024;19.220;2024-02-23T04:50:59;97060.19;;;8.09;100.00
35291;BME280;21411;50.024;19.220;2024-02-23T04:53:26;97066.13;;;8.06;100.00
35291;BME280;21411;50.024;19.220;2024-02-23T04:55:53;97071.48;;;8.04;100.00
35291;BME280;21411;50.024;19.220;2024-02-23T04:58:19;97075.69;;;8.02;100.00
35291;BME280;21411;50.024;19.220;2024-02-23T05:00:47;97076.30;;;8.01;100.00
35291;BME280;21411;50.024;19.220;2024-02-23T05:03:14;97080.42;;;8.00;100.00
35291;BME280;21411;50.024;19.220;2024-02-23T05:05:42;97085.29;;;7.99;100.00
35291;BME280;21411;50.024;19.220;2024-02-23T05:08:08;97086.48;;;7.96;100.00
35291;BME280;21411;50.024;19.220;2024-02-23T05:10:35;97089.48;;;7.94;100.00
35291;BME280;21411;50.024;19.220;2024-02-23T05:13:02;97090.40;;;7.91;100.00
35291;BME280;21411;50.024;19.220;2024-02-23T05:15:28;97093.88;;;7.90;100.00
35291;BME280;21411;50.024;19.220;2024-02-23T05:17:55;97096.23;;;7.90;100.00
35291;BME280;21411;50.024;19.220;2024-02-23T05:20:22;97097.48;;;7.87;100.00
35291;BME280;21411;50.024;19.220;2024-02-23T05:22:49;97100.67;;;7.87;100.00
35291;BME280;21411;50.024;19.220;2024-02-23T05:25:15;97101.21;;;7.87;100.00
35291;BME280;21411;50.024;19.220;2024-02-23T05:27:42;97102.88;;;7.88;100.00
35291;BME280;21411;50.024;19.220;2024-02-23T05:30:09;97107.54;;;7.90;100.00
35291;BME280;21411;50.024;19.220;2024-02-23T05:32:37;97107.91;;;7.89;100.00
35291;BME280;21411;50.024;19.220;2024-02-23T05:35:03;97105.09;;;7.89;100.00
35291;BME280;21411;50.024;19.220;2024-02-23T05:37:30;97105.45;;;7.89;100.00
35291;BME280;21411;50.024;19.220;2024-02-23T05:39:57;97108.45;;;7.87;100.00
35291;BME280;21411;50.024;19.220;2024-02-23T05:42:26;97114.81;;;7.85;100.00
35291;BME280;21411;50.024;19.220;2024-02-23T05:44:52;97121.35;;;7.83;100.00
35291;BME280;21411;50.024;19.220;2024-02-23T05:47:19;97122.96;;;7.83;100.00
35291;BME280;21411;50.024;19.220;2024-02-23T05:49:47;97120.79;;;7.84;100.00
35291;BME280;21411;50.024;19.220;2024-02-23T05:52:14;97120.32;;;7.85;100.00
35291;BME280;21411;50.024;19.220;2024-02-23T05:54:41;97128.02;;;7.86;100.00
35291;BME280;21411;50.024;19.220;2024-02-23T05:57:08;97133.93;;;7.87;100.00
35291;BME280;21411;50.024;19.220;2024-02-23T05:59:34;97137.67;;;7.88;100.00
35291;BME280;21411;50.024;19.220;2024-02-23T06:02:01;97134.83;;;7.89;100.00
35291;BME280;21411;50.024;19.220;2024-02-23T06:04:28;97139.48;;;7.88;100.00
35291;BME280;21411;50.024;19.220;2024-02-23T06:06:55;97148.70;;;7.88;100.00
35291;BME280;21411;50.024;19.220;2024-02-23T06:09:21;97149.54;;;7.88;100.00
35291;BME280;21411;50.024;19.220;2024-02-23T06:11:48;97150.66;;;7.90;100.00
35291;BME280;21411;50.024;19.220;2024-02-23T06:14:15;97156.94;;;7.89;100.00
35291;BME280;21411;50.024;19.220;2024-02-23T06:16:41;97164.72;;;7.88;100.00
35291;BME280;21411;50.024;19.220;2024-02-23T06:19:08;97164.48;;;7.89;100.00
35291;BME280;21411;50.024;19.220;2024-02-23T06:21:35;97163.42;;;7.89;100.00
35291;BME280;21411;50.024;19.220;2024-02-23T06:24:02;97166.55;;;7.90;100.00
35291;BME280;21411;50.024;19.220;2024-02-23T06:26:29;97168.46;;;7.91;100.00
35291;BME280;21411;50.024;19.220;2024-02-23T06:28:55;97175.77;;;7.92;100.00
35291;BME280;21411;50.024;19.220;2024-02-23T06:31:22;97181.52;;;7.93;100.00
35291;BME280;21411;50.024;19.220;2024-02-23T06:33:49;97186.52;;;7.95;100.00
35291;BME280;21411;50.024;19.220;2024-02-23T06:36:18;97185.97;;;7.93;100.00
35291;BME280;21411;50.024;19.220;2024-02-23T06:38:44;97193.08;;;7.92;100.00
35291;BME280;21411;50.024;19.220;2024-02-23T06:41:11;97190.60;;;7.92;100.00
35291;BME280;21411;50.024;19.220;2024-02-23T06:43:38;97197.54;;;7.91;100.00
35291;BME280;21411;50.024;19.220;2024-02-23T06:46:07;97206.70;;;7.92;100.00
35291;BME280;21411;50.024;19.220;2024-02-23T06:48:35;97208.14;;;7.92;100.00
35291;BME280;21411;50.024;19.220;2024-02-23T06:51:03;97216.00;;;7.91;100.00
35291;BME280;21411;50.024;19.220;2024-02-23T06:53:30;97216.52;;;7.91;100.00
35291;BME280;21411;50.024;19.220;2024-02-23T06:55:56;97217.91;;;7.94;100.00
35291;BME280;21411;50.024;19.220;2024-02-23T06:58:25;97225.10;;;7.96;100.00
35291;BME280;21411;50.024;19.220;2024-02-23T07:00:52;97232.55;;;7.98;100.00
35291;BME280;21411;50.024;19.220;2024-02-23T07:03:18;97235.58;;;8.00;100.00
35291;BME280;21411;50.024;19.220;2024-02-23T07:05:45;97242.60;;;8.02;100.00
35291;BME280;21411;50.024;19.220;2024-02-23T07:08:13;97249.23;;;8.06;100.00
35291;BME280;21411;50.024;19.220;2024-02-23T07:10:40;97252.05;;;8.10;100.00
35291;BME280;21411;50.024;19.220;2024-02-23T07:13:06;97260.65;;;8.13;100.00
35291;BME280;21411;50.024;19.220;2024-02-23T07:15:34;97265.31;;;8.12;100.00
35291;BME280;21411;50.024;19.220;2024-02-23T07:18:02;97262.30;;;8.12;100.00
35291;BME280;21411;50.024;19.220;2024-02-23T07:20:28;97264.09;;;8.14;100.00
35291;BME280;21411;50.024;19.220;2024-02-23T07:22:55;97269.23;;;8.18;100.00
35291;BME280;21411;50.024;19.220;2024-02-23T07:25:22;97272.22;;;8.22;100.00
35291;BME280;21411;50.024;19.220;2024-02-23T07:27:49;97276.54;;;8.26;100.00
35291;BME280;21411;50.024;19.220;2024-02-23T07:30:16;97275.19;;;8.29;100.00
35291;BME280;21411;50.024;19.220;2024-02-23T07:32:44;97278.42;;;8.35;100.00
35291;BME280;21411;50.024;19.220;2024-02-23T07:35:10;97283.08;;;8.41;100.00
35291;BME280;21411;50.024;19.220;2024-02-23T07:37:37;97287.73;;;8.44;100.00
35291;BME280;21411;50.024;19.220;2024-02-23T07:40:04;97295.58;;;8.46;100.00
35291;BME280;21411;50.024;19.220;2024-02-23T07:42:32;97297.91;;;8.47;100.00
35291;BME280;21411;50.024;19.220;2024-02-23T07:44:59;97298.50;;;8.45;100.00
35291;BME280;21411;50.024;19.220;2024-02-23T07:47:28;97297.44;;;8.45;100.00
35291;BME280;21411;50.024;19.220;2024-02-23T07:49:56;97299.33;;;8.47;100.00
35291;BME280;21411;50.024;19.220;2024-02-23T07:52:22;97300.67;;;8.50;100.00
35291;BME280;21411;50.024;19.220;2024-02-23T07:54:52;97297.05;;;8.53;100.00
35291;BME280;21411;50.024;19.220;2024-02-23T07:57:19;97294.11;;;8.56;100.00
35291;BME280;21411;50.024;19.220;2024-02-23T07:59:47;97296.34;;;8.60;100.00
35291;BME280;21411;50.024;19.220;2024-02-23T08:02:14;97301.35;;;8.61;100.00
35291;BME280;21411;50.024;19.220;2024-02-23T08:04:41;97300.74;;;8.62;100.00
35291;BME280;21411;50.024;19.220;2024-02-23T08:07:09;97301.83;;;8.64;100.00
35291;BME280;21411;50.024;19.220;2024-02-23T08:09:35;97299.23;;;8.67;100.00
35291;BME280;21411;50.024;19.220;2024-02-23T08:12:02;97301.83;;;8.72;100.00
35291;BME280;21411;50.024;19.220;2024-02-23T08:14:29;97301.19;;;8.73;100.00
35291;BME280;21411;50.024;19.220;2024-02-23T08:16:55;97299.73;;;8.71;100.00
35291;BME280;21411;50.024;19.220;2024-02-23T08:19:22;97296.27;;;8.73;100.00
35291;BME280;21411;50.024;19.220;2024-02-23T08:21:49;97300.02;;;8.74;100.00
35291;BME280;21411;50.024;19.220;2024-02-23T08:24:15;97305.01;;;8.76;100.00
35291;BME280;21411;50.024;19.220;2024-02-23T08:26:42;97307.29;;;8.80;100.00
35291;BME280;21411;50.024;19.220;2024-02-23T08:29:09;97304.70;;;8.86;100.00
35291;BME280;21411;50.024;19.220;2024-02-23T08:31:35;97310.78;;;8.87;100.00
35291;BME280;21411;50.024;19.220;2024-02-23T08:34:02;97310.95;;;8.87;100.00
35291;BME280;21411;50.024;19.220;2024-02-23T08:36:29;97313.34;;;8.90;100.00
35291;BME280;21411;50.024;19.220;2024-02-23T08:38:55;97317.09;;;8.96;100.00
35291;BME280;21411;50.024;19.220;2024-02-23T08:41:22;97317.00;;;8.99;100.00
35291;BME280;21411;50.024;19.220;2024-02-23T08:43:48;97315.34;;;9.02;100.00
35291;BME280;21411;50.024;19.220;2024-02-23T08:46:16;97319.64;;;9.04;100.00
35291;BME280;21411;50.024;19.220;2024-02-23T08:48:43;97324.34;;;9.05;100.00
35291;BME280;21411;50.024;19.220;2024-02-23T08:51:10;97327.02;;;9.04;100.00
35291;BME280;21411;50.024;19.220;2024-02-23T08:53:36;97330.82;;;9.03;100.00
35291;BME280;21411;50.024;19.220;2024-02-23T08:56:03;97336.50;;;9.05;100.00
35291;BME280;21411;50.024;19.220;2024-02-23T08:58:30;97338.09;;;9.09;100.00
35291;BME280;21411;50.024;19.220;2024-02-23T09:00:57;97339.95;;;9.14;100.00
35291;BME280;21411;50.024;19.220;2024-02-23T09:03:24;97336.59;;;9.20;100.00
35291;BME280;21411;50.024;19.220;2024-02-23T09:05:51;97340.02;;;9.25;100.00
35291;BME280;21411;50.024;19.220;2024-02-23T09:08:18;97339.64;;;9.28;100.00
35291;BME280;21411;50.024;19.220;2024-02-23T09:10:44;97342.20;;;9.31;100.00
35291;BME280;21411;50.024;19.220;2024-02-23T09:13:11;97346.26;;;9.37;100.00
35291;BME280;21411;50.024;19.220;2024-02-23T09:15:37;97347.29;;;9.43;100.00
35291;BME280;21411;50.024;19.220;2024-02-23T09:18:04;97349.37;;;9.50;100.00
35291;BME280;21411;50.024;19.220;2024-02-23T09:20:31;97350.09;;;9.56;100.00
35291;BME280;21411;50.024;19.220;2024-02-23T09:22:58;97348.90;;;9.61;100.00
35291;BME280;21411;50.024;19.220;2024-02-23T09:25:25;97355.33;;;9.69;100.00
35291;BME280;21411;50.024;19.220;2024-02-23T09:27:56;97362.42;;;9.78;100.00
35291;BME280;21411;50.024;19.220;2024-02-23T09:30:23;97367.92;;;9.90;100.00
35291;BME280;21411;50.024;19.220;2024-02-23T09:32:49;97375.49;;;9.99;100.00
35291;BME280;21411;50.024;19.220;2024-02-23T09:35:16;97383.09;;;10.07;100.00
35291;BME280;21411;50.024;19.220;2024-02-23T09:37:42;97385.04;;;10.13;100.00
35291;BME280;21411;50.024;19.220;2024-02-23T09:40:09;97391.72;;;10.14;100.00
35291;BME280;21411;50.024;19.220;2024-02-23T09:42:37;97397.18;;;10.14;100.00
35291;BME280;21411;50.024;19.220;2024-02-23T09:45:05;97405.70;;;10.14;100.00
35291;BME280;21411;50.024;19.220;2024-02-23T09:47:32;97408.33;;;10.15;100.00
35291;BME280;21411;50.024;19.220;2024-02-23T09:50:00;97411.40;;;10.14;100.00
35291;BME280;21411;50.024;19.220;2024-02-23T09:52:31;97410.97;;;10.13;100.00
35291;BME280;21411;50.024;19.220;2024-02-23T09:54:58;97411.44;;;10.14;100.00
35291;BME280;21411;50.024;19.220;2024-02-23T09:57:26;97414.59;;;10.14;100.00
35291;BME280;21411;50.024;19.220;2024-02-23T09:59:53;97415.48;;;10.16;100.00
35291;BME280;21411;50.024;19.220;2024-02-23T10:02:20;97413.42;;;10.21;100.00
35291;BME280;21411;50.024;19.220;2024-02-23T10:04:48;97412.33;;;10.25;100.00
35291;BME280;21411;50.024;19.220;2024-02-23T10:07:16;97410.72;;;10.27;100.00
35291;BME280;21411;50.024;19.220;2024-02-23T10:09:43;97413.48;;;10.32;100.00
35291;BME280;21411;50.024;19.220;2024-02-23T10:12:09;97418.33;;;10.34;100.00
35291;BME280;21411;50.024;19.220;2024-02-23T10:14:36;97416.72;;;10.28;100.00
35291;BME280;21411;50.024;19.220;2024-02-23T10:17:03;97420.94;;;10.24;100.00
35291;BME280;21411;50.024;19.220;2024-02-23T10:19:29;97416.50;;;10.22;100.00
35291;BME280;21411;50.024;19.220;2024-02-23T10:21:56;97410.95;;;10.23;100.00
35291;BME280;21411;50.024;19.220;2024-02-23T10:24:23;97404.39;;;10.27;100.00
35291;BME280;21411;50.024;19.220;2024-02-23T10:26:52;97406.62;;;10.36;100.00
35291;BME280;21411;50.024;19.220;2024-02-23T10:29:19;97411.61;;;10.45;100.00
35291;BME280;21411;50.024;19.220;2024-02-23T10:31:47;97405.57;;;10.53;100.00
35291;BME280;21411;50.024;19.220;2024-02-23T10:34:19;97403.83;;;10.64;100.00
35291;BME280;21411;50.024;19.220;2024-02-23T10:36:46;97409.98;;;10.74;100.00
35291;BME280;21411;50.024;19.220;2024-02-23T10:39:16;97413.15;;;10.86;100.00
35291;BME280;21411;50.024;19.220;2024-02-23T10:41:46;97407.59;;;10.94;100.00
35291;BME280;21411;50.024;19.220;2024-02-23T10:44:15;97407.55;;;10.96;100.00
35291;BME280;21411;50.024;19.220;2024-02-23T10:46:44;97412.38;;;11.00;100.00
35291;BME280;21411;50.024;19.220;2024-02-23T10:49:12;97417.63;;;10.97;100.00
35291;BME280;21411;50.024;19.220;2024-02-23T10:51:41;97417.08;;;10.91;100.00
35291;BME280;21411;50.024;19.220;2024-02-23T10:54:10;97422.06;;;10.91;100.00
35291;BME280;21411;50.024;19.220;2024-02-23T10:56:37;97421.02;;;10.93;100.00
35291;BME280;21411;50.024;19.220;2024-02-23T10:59:04;97418.27;;;10.96;100.00
35291;BME280;21411;50.024;19.220;2024-02-23T11:01:32;97417.30;;;10.98;100.00
35291;BME280;21411;50.024;19.220;2024-02-23T11:03:59;97426.77;;;10.92;100.00
35291;BME280;21411;50.024;19.220;2024-02-23T11:06:27;97431.38;;;10.83;100.00
35291;BME280;21411;50.024;19.220;2024-02-23T11:09:04;97434.66;;;10.80;100.00
35291;BME280;21411;50.024;19.220;2024-02-23T11:11:32;97439.37;;;10.77;100.00
35291;BME280;21411;50.024;19.220;2024-02-23T11:14:02;97435.12;;;10.73;100.00
35291;BME280;21411;50.024;19.220;2024-02-23T11:16:31;97430.89;;;10.69;100.00
35291;BME280;21411;50.024;19.220;2024-02-23T11:19:07;97426.38;;;10.61;100.00
35291;BME280;21411;50.024;19.220;2024-02-23T11:21:36;97418.77;;;10.60;100.00
35291;BME280;21411;50.024;19.220;2024-02-23T11:24:04;97423.98;;;10.63;100.00
35291;BME280;21411;50.024;19.220;2024-02-23T11:26:31;97422.14;;;10.62;100.00
35291;BME280;21411;50.024;19.220;2024-02-23T11:29:10;97422.20;;;10.63;100.00
35291;BME280;21411;50.024;19.220;2024-02-23T11:31:44;97422.58;;;10.67;100.00
35291;BME280;21411;50.024;19.220;2024-02-23T11:34:12;97422.58;;;10.69;100.00
35291;BME280;21411;50.024;19.220;2024-02-23T11:36:39;97427.88;;;10.71;100.00
35291;BME280;21411;50.024;19.220;2024-02-23T11:39:05;97432.75;;;10.72;100.00
35291;BME280;21411;50.024;19.220;2024-02-23T11:41:32;97435.38;;;10.74;100.00
35291;BME280;21411;50.024;19.220;2024-02-23T11:43:59;97440.27;;;10.81;100.00
35291;BME280;21411;50.024;19.220;2024-02-23T11:46:26;97439.91;;;10.92;100.00
35291;BME280;21411;50.024;19.220;2024-02-23T11:48:52;97441.81;;;11.04;100.00
35291;BME280;21411;50.024;19.220;2024-02-23T11:51:23;97447.98;;;11.15;100.00
35291;BME280;21411;50.024;19.220;2024-02-23T11:53:50;97449.01;;;11.21;100.00
35291;BME280;21411;50.024;19.220;2024-02-23T11:56:18;97454.07;;;11.24;100.00
35291;BME280;21411;50.024;19.220;2024-02-23T11:58:46;97458.23;;;11.21;100.00
35291;BME280;21411;50.024;19.220;2024-02-23T12:01:13;97466.75;;;11.17;100.00
35291;BME280;21411;50.024;19.220;2024-02-23T12:03:40;97470.08;;;11.17;100.00
35291;BME280;21411;50.024;19.220;2024-02-23T12:06:08;97473.96;;;11.16;100.00
35291;BME280;21411;50.024;19.220;2024-02-23T12:08:36;97476.02;;;11.11;100.00
35291;BME280;21411;50.024;19.220;2024-02-23T12:11:06;97475.60;;;11.08;100.00
35291;BME280;21411;50.024;19.220;2024-02-23T12:13:35;97480.38;;;11.04;100.00
35291;BME280;21411;50.024;19.220;2024-02-23T12:16:03;97482.64;;;10.97;100.00
35291;BME280;21411;50.024;19.220;2024-02-23T12:18:29;97486.90;;;10.93;100.00
35291;BME280;21411;50.024;19.220;2024-02-23T12:21:04;97488.77;;;10.92;100.00
35291;BME280;21411;50.024;19.220;2024-02-23T12:23:42;97481.98;;;10.89;100.00
35291;BME280;21411;50.024;19.220;2024-02-23T12:26:10;97466.66;;;10.86;100.00
35291;BME280;21411;50.024;19.220;2024-02-23T12:28:40;97456.61;;;10.91;100.00
35291;BME280;21411;50.024;19.220;2024-02-23T12:31:07;97457.19;;;11.00;100.00
35291;BME280;21411;50.024;19.220;2024-02-23T12:33:35;97466.00;;;11.06;100.00
35291;BME280;21411;50.024;19.220;2024-02-23T12:36:03;97472.20;;;11.07;100.00
35291;BME280;21411;50.024;19.220;2024-02-23T12:38:30;97472.48;;;11.05;100.00
35291;BME280;21411;50.024;19.220;2024-02-23T12:41:01;97473.15;;;11.08;100.00
35291;BME280;21411;50.024;19.220;2024-02-23T12:43:29;97477.09;;;11.09;100.00
35291;BME280;21411;50.024;19.220;2024-02-23T12:45:57;97484.02;;;11.07;100.00
35291;BME280;21411;50.024;19.220;2024-02-23T12:48:24;97481.89;;;11.05;100.00